sensor_id;sensor_type;location;lat;lon;timestamp;P1;durP1;ratioP1;P2;durP2;ratioP2
19675;SDS011;39539;52.202;9.876;2022-12-07T00:01:12;22.65;;;20.05;;
19675;SDS011;39539;52.202;9.876;2022-12-07T00:03:49;23.55;;;19.67;;
19675;SDS011;39539;52.202;9.876;2022-12-07T00:06:17;24.13;;;20.38;;
19675;SDS011;39539;52.202;9.876;2022-12-07T00:08:43;24.85;;;20.30;;
19675;SDS011;39539;52.202;9.876;2022-12-07T00:11:11;28.60;;;21.58;;
19675;SDS011;39539;52.202;9.876;2022-12-07T00:13:46;26.67;;;22.38;;
19675;SDS011;39539;52.202;9.876;2022-12-07T00:16:16;27.55;;;21.42;;
19675;SDS011;39539;52.202;9.876;2022-12-07T00:18:44;26.95;;;21.35;;
19675;SDS011;39539;52.202;9.876;2022-12-07T00:23:43;23.08;;;20.65;;
19675;SDS011;39539;52.202;9.876;2022-12-07T00:26:12;25.70;;;21.40;;
19675;SDS011;39539;52.202;9.876;2022-12-07T00:28:37;25.58;;;20.95;;
19675;SDS011;39539;52.202;9.876;2022-12-07T00:31:07;27.02;;;20.67;;
19675;SDS011;39539;52.202;9.876;2022-12-07T00:33:35;24.80;;;22.13;;
19675;SDS011;39539;52.202;9.876;2022-12-07T00:36:02;25.67;;;21.13;;
19675;SDS011;39539;52.202;9.876;2022-12-07T00:38:30;24.67;;;21.85;;
19675;SDS011;39539;52.202;9.876;2022-12-07T00:40:58;24.17;;;20.67;;
19675;SDS011;39539;52.202;9.876;2022-12-07T00:43:26;22.95;;;20.20;;
19675;SDS011;39539;52.202;9.876;2022-12-07T00:45:52;27.42;;;20.48;;
19675;SDS011;39539;52.202;9.876;2022-12-07T00:48:17;23.17;;;20.27;;
19675;SDS011;39539;52.202;9.876;2022-12-07T00:50:43;25.75;;;19.70;;
19675;SDS011;39539;52.202;9.876;2022-12-07T00:53:08;20.85;;;18.65;;
19675;SDS011;39539;52.202;9.876;2022-12-07T00:55:34;25.05;;;19.70;;
19675;SDS011;39539;52.202;9.876;2022-12-07T00:58:00;21.40;;;19.27;;
19675;SDS011;39539;52.202;9.876;2022-12-07T01:00:25;21.55;;;19.45;;
19675;SDS011;39539;52.202;9.876;2022-12-07T01:02:50;21.48;;;18.90;;
19675;SDS011;39539;52.202;9.876;2022-12-07T01:05:16;20.17;;;18.17;;
19675;SDS011;39539;52.202;9.876;2022-12-07T01:07:41;20.48;;;17.88;;
19675;SDS011;39539;52.202;9.876;2022-12-07T01:10:06;18.67;;;16.98;;
19675;SDS011;39539;52.202;9.876;2022-12-07T01:12:32;19.75;;;17.73;;
19675;SDS011;39539;52.202;9.876;2022-12-07T01:14:57;18.55;;;16.75;;
19675;SDS011;39539;52.202;9.876;2022-12-07T01:17:23;18.20;;;16.58;;
19675;SDS011;39539;52.202;9.876;2022-12-07T01:19:48;19.27;;;17.48;;
19675;SDS011;39539;52.202;9.876;2022-12-07T01:22:13;18.77;;;17.08;;
19675;SDS011;39539;52.202;9.876;2022-12-07T01:24:39;18.23;;;16.55;;
19675;SDS011;39539;52.202;9.876;2022-12-07T01:27:04;17.98;;;16.13;;
19675;SDS011;39539;52.202;9.876;2022-12-07T01:29:29;19.63;;;17.63;;
19675;SDS011;39539;52.202;9.876;2022-12-07T01:31:55;18.38;;;16.65;;
19675;SDS011;39539;52.202;9.876;2022-12-07T01:34:20;19.20;;;17.45;;
19675;SDS011;39539;52.202;9.876;2022-12-07T01:36:47;18.58;;;16.98;;
19675;SDS011;39539;52.202;9.876;2022-12-07T01:39:12;19.50;;;17.50;;
19675;SDS011;39539;52.202;9.876;2022-12-07T01:41:38;17.23;;;15.77;;
19675;SDS011;39539;52.202;9.876;2022-12-07T01:44:21;17.98;;;16.25;;
19675;SDS011;39539;52.202;9.876;2022-12-07T01:49:16;17.98;;;16.38;;
19675;SDS011;39539;52.202;9.876;2022-12-07T01:54:59;18.65;;;16.98;;
19675;SDS011;39539;52.202;9.876;2022-12-07T01:57:28;19.02;;;17.02;;
19675;SDS011;39539;52.202;9.876;2022-12-07T01:59:55;18.42;;;16.90;;
19675;SDS011;39539;52.202;9.876;2022-12-07T02:02:33;18.98;;;17.27;;
19675;SDS011;39539;52.202;9.876;2022-12-07T02:05:00;19.20;;;17.50;;
19675;SDS011;39539;52.202;9.876;2022-12-07T02:07:27;18.58;;;16.98;;
19675;SDS011;39539;52.202;9.876;2022-12-07T02:09:54;18.88;;;17.20;;
19675;SDS011;39539;52.202;9.876;2022-12-07T02:12:19;18.65;;;17.15;;
19675;SDS011;39539;52.202;9.876;2022-12-07T02:14:47;20.77;;;18.88;;
19675;SDS011;39539;52.202;9.876;2022-12-07T02:19:51;19.60;;;17.65;;
19675;SDS011;39539;52.202;9.876;2022-12-07T02:31:18;20.70;;;18.73;;
19675;SDS011;39539;52.202;9.876;2022-12-07T02:33:49;20.98;;;18.98;;
19675;SDS011;39539;52.202;9.876;2022-12-07T02:36:25;20.20;;;18.38;;
19675;SDS011;39539;52.202;9.876;2022-12-07T02:39:01;20.45;;;18.42;;
19675;SDS011;39539;52.202;9.876;2022-12-07T02:41:33;20.25;;;18.23;;
19675;SDS011;39539;52.202;9.876;2022-12-07T02:44:12;20.48;;;18.42;;
19675;SDS011;39539;52.202;9.876;2022-12-07T02:46:47;20.75;;;18.65;;
19675;SDS011;39539;52.202;9.876;2022-12-07T02:49:18;22.48;;;20.30;;
19675;SDS011;39539;52.202;9.876;2022-12-07T02:51:46;22.30;;;20.00;;
19675;SDS011;39539;52.202;9.876;2022-12-07T02:54:12;21.45;;;19.25;;
19675;SDS011;39539;52.202;9.876;2022-12-07T03:07:07;23.58;;;21.20;;
19675;SDS011;39539;52.202;9.876;2022-12-07T03:15:31;20.60;;;18.17;;
19675;SDS011;39539;52.202;9.876;2022-12-07T03:17:58;19.08;;;17.33;;
19675;SDS011;39539;52.202;9.876;2022-12-07T03:20:25;22.30;;;17.50;;
19675;SDS011;39539;52.202;9.876;2022-12-07T03:22:53;19.17;;;17.33;;
19675;SDS011;39539;52.202;9.876;2022-12-07T03:25:20;19.83;;;17.70;;
19675;SDS011;39539;52.202;9.876;2022-12-07T03:27:57;19.60;;;17.50;;
19675;SDS011;39539;52.202;9.876;2022-12-07T03:30:46;19.67;;;17.70;;
19675;SDS011;39539;52.202;9.876;2022-12-07T03:33:40;19.35;;;17.38;;
19675;SDS011;39539;52.202;9.876;2022-12-07T03:36:24;17.65;;;15.80;;
19675;SDS011;39539;52.202;9.876;2022-12-07T03:41:37;16.70;;;15.10;;
19675;SDS011;39539;52.202;9.876;2022-12-07T03:44:04;18.00;;;16.30;;
19675;SDS011;39539;52.202;9.876;2022-12-07T03:46:35;17.92;;;16.25;;
19675;SDS011;39539;52.202;9.876;2022-12-07T03:51:54;17.25;;;15.35;;
19675;SDS011;39539;52.202;9.876;2022-12-07T03:56:57;14.30;;;12.90;;
19675;SDS011;39539;52.202;9.876;2022-12-07T03:59:23;14.73;;;12.63;;
19675;SDS011;39539;52.202;9.876;2022-12-07T04:01:57;14.32;;;12.82;;
19675;SDS011;39539;52.202;9.876;2022-12-07T04:04:28;14.82;;;13.38;;
19675;SDS011;39539;52.202;9.876;2022-12-07T04:06:54;14.02;;;12.63;;
19675;SDS011;39539;52.202;9.876;2022-12-07T04:09:19;14.07;;;12.27;;
19675;SDS011;39539;52.202;9.876;2022-12-07T04:11:45;13.63;;;12.23;;
19675;SDS011;39539;52.202;9.876;2022-12-07T04:14:10;14.90;;;13.52;;
19675;SDS011;39539;52.202;9.876;2022-12-07T04:16:48;14.15;;;12.68;;
19675;SDS011;39539;52.202;9.876;2022-12-07T04:19:17;17.27;;;12.50;;
19675;SDS011;39539;52.202;9.876;2022-12-07T04:21:45;13.88;;;12.45;;
19675;SDS011;39539;52.202;9.876;2022-12-07T04:24:11;15.23;;;13.68;;
19675;SDS011;39539;52.202;9.876;2022-12-07T04:26:37;13.32;;;12.02;;
19675;SDS011;39539;52.202;9.876;2022-12-07T04:29:02;14.68;;;11.35;;
19675;SDS011;39539;52.202;9.876;2022-12-07T04:31:27;12.10;;;10.43;;
19675;SDS011;39539;52.202;9.876;2022-12-07T04:33:53;12.75;;;11.40;;
19675;SDS011;39539;52.202;9.876;2022-12-07T04:36:18;12.43;;;10.77;;
19675;SDS011;39539;52.202;9.876;2022-12-07T04:38:45;13.68;;;11.25;;
19675;SDS011;39539;52.202;9.876;2022-12-07T04:41:11;10.90;;;9.73;;
19675;SDS011;39539;52.202;9.876;2022-12-07T04:43:36;11.38;;;9.90;;
19675;SDS011;39539;52.202;9.876;2022-12-07T04:46:01;10.63;;;9.55;;
19675;SDS011;39539;52.202;9.876;2022-12-07T04:48:28;11.77;;;10.02;;
19675;SDS011;39539;52.202;9.876;2022-12-07T04:50:54;11.07;;;9.15;;
19675;SDS011;39539;52.202;9.876;2022-12-07T04:53:20;10.73;;;9.73;;
19675;SDS011;39539;52.202;9.876;2022-12-07T04:55:46;13.60;;;9.55;;
19675;SDS011;39539;52.202;9.876;2022-12-07T04:58:11;11.50;;;10.23;;
19675;SDS011;39539;52.202;9.876;2022-12-07T05:00:38;11.68;;;10.00;;
19675;SDS011;39539;52.202;9.876;2022-12-07T05:03:03;14.43;;;10.35;;
19675;SDS011;39539;52.202;9.876;2022-12-07T05:05:29;11.07;;;9.93;;
19675;SDS011;39539;52.202;9.876;2022-12-07T05:07:54;11.85;;;10.68;;
19675;SDS011;39539;52.202;9.876;2022-12-07T05:10:20;13.38;;;11.20;;
19675;SDS011;39539;52.202;9.876;2022-12-07T05:12:45;13.10;;;11.80;;
19675;SDS011;39539;52.202;9.876;2022-12-07T05:15:11;11.77;;;10.68;;
19675;SDS011;39539;52.202;9.876;2022-12-07T05:17:37;11.00;;;9.85;;
19675;SDS011;39539;52.202;9.876;2022-12-07T05:20:03;11.75;;;10.55;;
19675;SDS011;39539;52.202;9.876;2022-12-07T05:22:29;12.48;;;10.57;;
19675;SDS011;39539;52.202;9.876;2022-12-07T05:24:54;13.18;;;11.13;;
19675;SDS011;39539;52.202;9.876;2022-12-07T05:27:20;11.40;;;10.02;;
19675;SDS011;39539;52.202;9.876;2022-12-07T05:29:46;14.48;;;10.82;;
19675;SDS011;39539;52.202;9.876;2022-12-07T05:32:11;11.43;;;10.20;;
19675;SDS011;39539;52.202;9.876;2022-12-07T05:34:37;12.23;;;9.95;;
19675;SDS011;39539;52.202;9.876;2022-12-07T05:37:02;12.23;;;10.35;;
19675;SDS011;39539;52.202;9.876;2022-12-07T05:39:27;14.18;;;12.23;;
19675;SDS011;39539;52.202;9.876;2022-12-07T05:41:53;17.83;;;12.20;;
19675;SDS011;39539;52.202;9.876;2022-12-07T05:44:37;12.77;;;10.38;;
19675;SDS011;39539;52.202;9.876;2022-12-07T05:47:02;11.75;;;10.55;;
19675;SDS011;39539;52.202;9.876;2022-12-07T05:49:28;11.82;;;10.68;;
19675;SDS011;39539;52.202;9.876;2022-12-07T05:51:53;11.23;;;10.10;;
19675;SDS011;39539;52.202;9.876;2022-12-07T05:54:19;11.25;;;10.00;;
19675;SDS011;39539;52.202;9.876;2022-12-07T05:56:44;9.30;;;8.25;;
19675;SDS011;39539;52.202;9.876;2022-12-07T05:59:10;11.20;;;10.10;;
19675;SDS011;39539;52.202;9.876;2022-12-07T06:01:48;10.90;;;9.25;;
19675;SDS011;39539;52.202;9.876;2022-12-07T06:04:16;11.10;;;9.23;;
19675;SDS011;39539;52.202;9.876;2022-12-07T06:06:42;9.82;;;8.85;;
19675;SDS011;39539;52.202;9.876;2022-12-07T06:09:08;8.93;;;8.02;;
19675;SDS011;39539;52.202;9.876;2022-12-07T06:11:35;10.20;;;8.02;;
19675;SDS011;39539;52.202;9.876;2022-12-07T06:14:19;9.88;;;8.05;;
19675;SDS011;39539;52.202;9.876;2022-12-07T06:16:45;8.40;;;7.35;;
19675;SDS011;39539;52.202;9.876;2022-12-07T06:19:11;9.30;;;7.50;;
19675;SDS011;39539;52.202;9.876;2022-12-07T06:21:38;11.43;;;7.80;;
19675;SDS011;39539;52.202;9.876;2022-12-07T06:24:03;11.07;;;6.95;;
19675;SDS011;39539;52.202;9.876;2022-12-07T06:26:29;7.65;;;6.93;;
19675;SDS011;39539;52.202;9.876;2022-12-07T06:28:55;8.30;;;7.53;;
19675;SDS011;39539;52.202;9.876;2022-12-07T06:31:22;7.75;;;6.95;;
19675;SDS011;39539;52.202;9.876;2022-12-07T06:33:48;7.97;;;7.13;;
19675;SDS011;39539;52.202;9.876;2022-12-07T06:36:14;9.20;;;7.45;;
19675;SDS011;39539;52.202;9.876;2022-12-07T06:38:40;10.02;;;7.10;;
19675;SDS011;39539;52.202;9.876;2022-12-07T06:41:05;8.32;;;7.57;;
19675;SDS011;39539;52.202;9.876;2022-12-07T06:43:31;9.35;;;7.22;;
19675;SDS011;39539;52.202;9.876;2022-12-07T06:45:57;9.07;;;7.43;;
19675;SDS011;39539;52.202;9.876;2022-12-07T06:48:23;10.00;;;7.47;;
19675;SDS011;39539;52.202;9.876;2022-12-07T06:50:49;7.72;;;7.03;;
19675;SDS011;39539;52.202;9.876;2022-12-07T06:53:15;7.85;;;7.13;;
19675;SDS011;39539;52.202;9.876;2022-12-07T06:55:40;8.73;;;7.93;;
19675;SDS011;39539;52.202;9.876;2022-12-07T06:58:09;8.45;;;7.75;;
19675;SDS011;39539;52.202;9.876;2022-12-07T07:00:35;7.90;;;7.13;;
19675;SDS011;39539;52.202;9.876;2022-12-07T07:03:00;9.57;;;7.45;;
19675;SDS011;39539;52.202;9.876;2022-12-07T07:05:26;7.75;;;7.15;;
19675;SDS011;39539;52.202;9.876;2022-12-07T07:07:52;8.50;;;7.30;;
19675;SDS011;39539;52.202;9.876;2022-12-07T07:10:17;8.20;;;7.43;;
19675;SDS011;39539;52.202;9.876;2022-12-07T07:12:43;8.98;;;6.75;;
19675;SDS011;39539;52.202;9.876;2022-12-07T07:15:08;9.40;;;7.35;;
19675;SDS011;39539;52.202;9.876;2022-12-07T07:17:34;7.75;;;6.95;;
19675;SDS011;39539;52.202;9.876;2022-12-07T07:20:00;9.63;;;6.75;;
19675;SDS011;39539;52.202;9.876;2022-12-07T07:22:25;6.85;;;5.82;;
19675;SDS011;39539;52.202;9.876;2022-12-07T07:24:51;6.30;;;5.78;;
19675;SDS011;39539;52.202;9.876;2022-12-07T07:27:18;10.15;;;6.15;;
19675;SDS011;39539;52.202;9.876;2022-12-07T07:29:44;9.68;;;6.78;;
19675;SDS011;39539;52.202;9.876;2022-12-07T07:32:11;9.90;;;6.55;;
19675;SDS011;39539;52.202;9.876;2022-12-07T07:34:37;7.00;;;6.30;;
19675;SDS011;39539;52.202;9.876;2022-12-07T07:37:05;5.90;;;5.30;;
19675;SDS011;39539;52.202;9.876;2022-12-07T07:39:31;5.60;;;4.95;;
19675;SDS011;39539;52.202;9.876;2022-12-07T07:41:56;6.15;;;4.30;;
19675;SDS011;39539;52.202;9.876;2022-12-07T07:44:22;5.13;;;4.50;;
19675;SDS011;39539;52.202;9.876;2022-12-07T07:46:47;4.95;;;4.45;;
19675;SDS011;39539;52.202;9.876;2022-12-07T07:49:13;4.45;;;4.05;;
19675;SDS011;39539;52.202;9.876;2022-12-07T07:51:38;4.57;;;3.95;;
19675;SDS011;39539;52.202;9.876;2022-12-07T07:54:04;9.40;;;4.18;;
19675;SDS011;39539;52.202;9.876;2022-12-07T07:56:31;6.15;;;4.10;;
19675;SDS011;39539;52.202;9.876;2022-12-07T07:58:56;6.10;;;3.50;;
19675;SDS011;39539;52.202;9.876;2022-12-07T08:01:22;4.13;;;3.72;;
19675;SDS011;39539;52.202;9.876;2022-12-07T08:03:47;4.93;;;3.88;;
19675;SDS011;39539;52.202;9.876;2022-12-07T08:06:13;4.22;;;3.83;;
19675;SDS011;39539;52.202;9.876;2022-12-07T08:08:38;4.10;;;3.47;;
19675;SDS011;39539;52.202;9.876;2022-12-07T08:11:10;3.83;;;2.60;;
19675;SDS011;39539;52.202;9.876;2022-12-07T08:13:36;4.32;;;3.03;;
19675;SDS011;39539;52.202;9.876;2022-12-07T08:16:17;3.20;;;2.90;;
19675;SDS011;39539;52.202;9.876;2022-12-07T08:18:42;4.82;;;3.15;;
19675;SDS011;39539;52.202;9.876;2022-12-07T08:21:09;4.13;;;2.45;;
19675;SDS011;39539;52.202;9.876;2022-12-07T08:23:39;2.97;;;2.70;;
19675;SDS011;39539;52.202;9.876;2022-12-07T08:26:06;5.82;;;3.10;;
19675;SDS011;39539;52.202;9.876;2022-12-07T08:28:34;3.60;;;2.90;;
19675;SDS011;39539;52.202;9.876;2022-12-07T08:31:04;2.78;;;2.45;;
19675;SDS011;39539;52.202;9.876;2022-12-07T08:33:34;3.85;;;2.95;;
19675;SDS011;39539;52.202;9.876;2022-12-07T08:36:03;3.35;;;2.30;;
19675;SDS011;39539;52.202;9.876;2022-12-07T08:38:36;3.55;;;2.28;;
19675;SDS011;39539;52.202;9.876;2022-12-07T08:41:03;3.20;;;2.10;;
19675;SDS011;39539;52.202;9.876;2022-12-07T08:43:30;3.42;;;2.00;;
19675;SDS011;39539;52.202;9.876;2022-12-07T08:46:07;6.85;;;2.38;;
19675;SDS011;39539;52.202;9.876;2022-12-07T08:49:37;3.40;;;1.98;;
19675;SDS011;39539;52.202;9.876;2022-12-07T08:51:36;4.55;;;1.90;;
19675;SDS011;39539;52.202;9.876;2022-12-07T08:54:04;3.67;;;2.15;;
19675;SDS011;39539;52.202;9.876;2022-12-07T08:56:41;2.30;;;1.77;;
19675;SDS011;39539;52.202;9.876;2022-12-07T08:59:09;3.08;;;1.98;;
19675;SDS011;39539;52.202;9.876;2022-12-07T09:01:44;3.20;;;2.28;;
19675;SDS011;39539;52.202;9.876;2022-12-07T09:04:10;4.32;;;2.20;;
19675;SDS011;39539;52.202;9.876;2022-12-07T09:06:36;2.90;;;2.15;;
19675;SDS011;39539;52.202;9.876;2022-12-07T09:09:02;4.10;;;2.55;;
19675;SDS011;39539;52.202;9.876;2022-12-07T09:11:28;2.45;;;2.15;;
19675;SDS011;39539;52.202;9.876;2022-12-07T09:13:53;4.55;;;2.30;;
19675;SDS011;39539;52.202;9.876;2022-12-07T09:16:19;3.75;;;2.17;;
19675;SDS011;39539;52.202;9.876;2022-12-07T09:18:49;3.83;;;2.70;;
19675;SDS011;39539;52.202;9.876;2022-12-07T09:21:16;3.67;;;2.70;;
19675;SDS011;39539;52.202;9.876;2022-12-07T09:23:42;3.30;;;2.20;;
19675;SDS011;39539;52.202;9.876;2022-12-07T09:26:07;6.60;;;6.00;;
19675;SDS011;39539;52.202;9.876;2022-12-07T09:28:33;3.22;;;2.20;;
19675;SDS011;39539;52.202;9.876;2022-12-07T09:30:59;3.03;;;1.92;;
19675;SDS011;39539;52.202;9.876;2022-12-07T09:33:25;4.45;;;1.80;;
19675;SDS011;39539;52.202;9.876;2022-12-07T09:35:52;2.75;;;1.65;;
19675;SDS011;39539;52.202;9.876;2022-12-07T09:38:19;2.90;;;1.77;;
19675;SDS011;39539;52.202;9.876;2022-12-07T09:40:45;4.00;;;1.67;;
19675;SDS011;39539;52.202;9.876;2022-12-07T09:43:13;6.53;;;1.77;;
19675;SDS011;39539;52.202;9.876;2022-12-07T09:45:43;2.83;;;1.15;;
19675;SDS011;39539;52.202;9.876;2022-12-07T09:48:20;2.17;;;1.58;;
19675;SDS011;39539;52.202;9.876;2022-12-07T09:50:49;3.63;;;1.70;;
19675;SDS011;39539;52.202;9.876;2022-12-07T09:53:26;2.50;;;1.33;;
19675;SDS011;39539;52.202;9.876;2022-12-07T09:55:54;2.35;;;1.50;;
19675;SDS011;39539;52.202;9.876;2022-12-07T09:58:25;2.47;;;1.40;;
19675;SDS011;39539;52.202;9.876;2022-12-07T10:01:00;2.05;;;1.10;;
19675;SDS011;39539;52.202;9.876;2022-12-07T10:03:38;3.13;;;1.33;;
19675;SDS011;39539;52.202;9.876;2022-12-07T10:06:06;3.33;;;1.77;;
19675;SDS011;39539;52.202;9.876;2022-12-07T10:08:33;1.60;;;1.50;;
19675;SDS011;39539;52.202;9.876;2022-12-07T10:11:01;2.00;;;1.30;;
19675;SDS011;39539;52.202;9.876;2022-12-07T10:13:36;1.83;;;1.30;;
19675;SDS011;39539;52.202;9.876;2022-12-07T10:16:30;2.83;;;1.63;;
19675;SDS011;39539;52.202;9.876;2022-12-07T10:19:17;3.03;;;1.20;;
19675;SDS011;39539;52.202;9.876;2022-12-07T10:21:43;3.17;;;1.40;;
19675;SDS011;39539;52.202;9.876;2022-12-07T10:24:26;2.53;;;1.27;;
19675;SDS011;39539;52.202;9.876;2022-12-07T10:26:52;2.22;;;1.15;;
19675;SDS011;39539;52.202;9.876;2022-12-07T10:29:28;1.83;;;1.20;;
19675;SDS011;39539;52.202;9.876;2022-12-07T10:32:03;2.80;;;1.20;;
19675;SDS011;39539;52.202;9.876;2022-12-07T10:34:37;2.55;;;1.15;;
19675;SDS011;39539;52.202;9.876;2022-12-07T10:39:41;2.13;;;1.23;;
19675;SDS011;39539;52.202;9.876;2022-12-07T10:42:16;1.30;;;1.20;;
19675;SDS011;39539;52.202;9.876;2022-12-07T10:44:43;2.20;;;1.42;;
19675;SDS011;39539;52.202;9.876;2022-12-07T10:52:49;3.22;;;1.40;;
19675;SDS011;39539;52.202;9.876;2022-12-07T11:01:23;2.97;;;1.77;;
19675;SDS011;39539;52.202;9.876;2022-12-07T11:06:27;2.10;;;1.90;;
19675;SDS011;39539;52.202;9.876;2022-12-07T11:12:14;2.75;;;1.80;;
19675;SDS011;39539;52.202;9.876;2022-12-07T11:14:45;4.13;;;2.50;;
19675;SDS011;39539;52.202;9.876;2022-12-07T11:17:25;4.43;;;2.00;;
19675;SDS011;39539;52.202;9.876;2022-12-07T11:20:21;3.85;;;1.95;;
19675;SDS011;39539;52.202;9.876;2022-12-07T11:34:08;3.65;;;2.72;;
19675;SDS011;39539;52.202;9.876;2022-12-07T11:42:10;3.33;;;1.95;;
19675;SDS011;39539;52.202;9.876;2022-12-07T11:47:54;4.07;;;2.50;;
19675;SDS011;39539;52.202;9.876;2022-12-07T11:56:11;5.22;;;2.90;;
19675;SDS011;39539;52.202;9.876;2022-12-07T12:12:11;5.32;;;3.47;;
19675;SDS011;39539;52.202;9.876;2022-12-07T12:20:32;3.92;;;2.08;;
19675;SDS011;39539;52.202;9.876;2022-12-07T12:23:35;5.05;;;2.45;;
19675;SDS011;39539;52.202;9.876;2022-12-07T12:26:01;6.57;;;1.70;;
19675;SDS011;39539;52.202;9.876;2022-12-07T12:33:49;5.85;;;1.85;;
19675;SDS011;39539;52.202;9.876;2022-12-07T12:46:47;3.15;;;1.42;;
19675;SDS011;39539;52.202;9.876;2022-12-07T12:51:51;3.17;;;2.22;;
19675;SDS011;39539;52.202;9.876;2022-12-07T12:54:32;4.50;;;2.30;;
19675;SDS011;39539;52.202;9.876;2022-12-07T12:57:15;3.00;;;2.45;;
19675;SDS011;39539;52.202;9.876;2022-12-07T13:00:01;4.85;;;3.17;;
19675;SDS011;39539;52.202;9.876;2022-12-07T13:02:50;6.38;;;3.17;;
19675;SDS011;39539;52.202;9.876;2022-12-07T13:10:49;3.88;;;2.47;;
19675;SDS011;39539;52.202;9.876;2022-12-07T13:15:51;4.22;;;2.63;;
19675;SDS011;39539;52.202;9.876;2022-12-07T13:18:36;4.68;;;2.28;;
19675;SDS011;39539;52.202;9.876;2022-12-07T13:23:32;5.20;;;2.17;;
19675;SDS011;39539;52.202;9.876;2022-12-07T13:26:19;5.18;;;2.20;;
19675;SDS011;39539;52.202;9.876;2022-12-07T13:34:26;4.97;;;2.08;;
19675;SDS011;39539;52.202;9.876;2022-12-07T13:37:14;4.43;;;1.85;;
19675;SDS011;39539;52.202;9.876;2022-12-07T13:39:56;5.35;;;1.60;;
19675;SDS011;39539;52.202;9.876;2022-12-07T13:45:37;4.05;;;2.30;;
19675;SDS011;39539;52.202;9.876;2022-12-07T13:48:27;5.00;;;2.17;;
19675;SDS011;39539;52.202;9.876;2022-12-07T13:51:02;5.20;;;2.53;;
19675;SDS011;39539;52.202;9.876;2022-12-07T13:53:30;5.55;;;2.13;;
19675;SDS011;39539;52.202;9.876;2022-12-07T13:55:57;4.93;;;2.53;;
19675;SDS011;39539;52.202;9.876;2022-12-07T13:58:24;4.22;;;2.28;;
19675;SDS011;39539;52.202;9.876;2022-12-07T14:00:50;6.32;;;2.70;;
19675;SDS011;39539;52.202;9.876;2022-12-07T14:05:42;3.78;;;2.25;;
19675;SDS011;39539;52.202;9.876;2022-12-07T14:10:36;4.18;;;1.98;;
19675;SDS011;39539;52.202;9.876;2022-12-07T14:16:00;3.30;;;2.00;;
19675;SDS011;39539;52.202;9.876;2022-12-07T14:21:05;4.78;;;2.72;;
19675;SDS011;39539;52.202;9.876;2022-12-07T14:23:33;5.72;;;2.17;;
19675;SDS011;39539;52.202;9.876;2022-12-07T14:26:05;8.55;;;2.40;;
19675;SDS011;39539;52.202;9.876;2022-12-07T14:28:38;2.95;;;1.98;;
19675;SDS011;39539;52.202;9.876;2022-12-07T14:31:23;5.32;;;2.53;;
19675;SDS011;39539;52.202;9.876;2022-12-07T14:33:50;5.38;;;2.65;;
19675;SDS011;39539;52.202;9.876;2022-12-07T14:36:15;5.70;;;2.53;;
19675;SDS011;39539;52.202;9.876;2022-12-07T14:38:42;5.53;;;2.65;;
19675;SDS011;39539;52.202;9.876;2022-12-07T14:41:12;3.35;;;2.15;;
19675;SDS011;39539;52.202;9.876;2022-12-07T14:43:58;7.93;;;2.63;;
19675;SDS011;39539;52.202;9.876;2022-12-07T14:46:26;4.65;;;2.72;;
19675;SDS011;39539;52.202;9.876;2022-12-07T14:48:51;5.47;;;2.53;;
19675;SDS011;39539;52.202;9.876;2022-12-07T14:51:18;5.03;;;2.40;;
19675;SDS011;39539;52.202;9.876;2022-12-07T14:53:48;4.68;;;2.92;;
19675;SDS011;39539;52.202;9.876;2022-12-07T14:56:15;6.47;;;2.40;;
19675;SDS011;39539;52.202;9.876;2022-12-07T14:58:42;3.90;;;2.53;;
19675;SDS011;39539;52.202;9.876;2022-12-07T15:01:08;3.95;;;2.35;;
19675;SDS011;39539;52.202;9.876;2022-12-07T15:03:33;5.57;;;2.78;;
19675;SDS011;39539;52.202;9.876;2022-12-07T15:06:10;4.35;;;2.80;;
19675;SDS011;39539;52.202;9.876;2022-12-07T15:08:39;4.85;;;2.30;;
19675;SDS011;39539;52.202;9.876;2022-12-07T15:11:06;4.07;;;2.60;;
19675;SDS011;39539;52.202;9.876;2022-12-07T15:13:32;4.18;;;2.33;;
19675;SDS011;39539;52.202;9.876;2022-12-07T15:16:18;3.53;;;2.33;;
19675;SDS011;39539;52.202;9.876;2022-12-07T15:18:46;3.78;;;2.20;;
19675;SDS011;39539;52.202;9.876;2022-12-07T15:21:16;4.78;;;2.20;;
19675;SDS011;39539;52.202;9.876;2022-12-07T15:23:41;5.75;;;2.30;;
19675;SDS011;39539;52.202;9.876;2022-12-07T15:26:07;3.72;;;1.83;;
19675;SDS011;39539;52.202;9.876;2022-12-07T15:28:33;5.10;;;2.58;;
19675;SDS011;39539;52.202;9.876;2022-12-07T15:31:00;4.30;;;2.38;;
19675;SDS011;39539;52.202;9.876;2022-12-07T15:33:26;5.00;;;2.10;;
19675;SDS011;39539;52.202;9.876;2022-12-07T15:35:51;5.53;;;2.35;;
19675;SDS011;39539;52.202;9.876;2022-12-07T15:38:17;3.90;;;2.15;;
19675;SDS011;39539;52.202;9.876;2022-12-07T15:40:42;6.15;;;2.15;;
19675;SDS011;39539;52.202;9.876;2022-12-07T15:43:11;4.25;;;1.90;;
19675;SDS011;39539;52.202;9.876;2022-12-07T15:45:55;3.72;;;2.17;;
19675;SDS011;39539;52.202;9.876;2022-12-07T15:48:26;3.15;;;2.05;;
19675;SDS011;39539;52.202;9.876;2022-12-07T15:50:51;3.50;;;1.88;;
19675;SDS011;39539;52.202;9.876;2022-12-07T15:53:16;2.90;;;2.13;;
19675;SDS011;39539;52.202;9.876;2022-12-07T15:55:42;5.97;;;5.47;;
19675;SDS011;39539;52.202;9.876;2022-12-07T15:58:07;4.30;;;2.65;;
19675;SDS011;39539;52.202;9.876;2022-12-07T16:00:33;3.80;;;2.25;;
19675;SDS011;39539;52.202;9.876;2022-12-07T16:02:58;3.42;;;1.90;;
19675;SDS011;39539;52.202;9.876;2022-12-07T16:05:24;6.05;;;1.80;;
19675;SDS011;39539;52.202;9.876;2022-12-07T16:07:52;3.38;;;1.77;;
19675;SDS011;39539;52.202;9.876;2022-12-07T16:10:18;5.35;;;2.00;;
19675;SDS011;39539;52.202;9.876;2022-12-07T16:12:43;2.95;;;1.95;;
19675;SDS011;39539;52.202;9.876;2022-12-07T16:15:09;3.40;;;2.00;;
19675;SDS011;39539;52.202;9.876;2022-12-07T16:17:34;3.85;;;2.30;;
19675;SDS011;39539;52.202;9.876;2022-12-07T16:20:00;4.28;;;2.33;;
19675;SDS011;39539;52.202;9.876;2022-12-07T16:22:27;2.85;;;2.08;;
19675;SDS011;39539;52.202;9.876;2022-12-07T16:24:52;5.32;;;2.20;;
19675;SDS011;39539;52.202;9.876;2022-12-07T16:27:18;4.57;;;2.10;;
19675;SDS011;39539;52.202;9.876;2022-12-07T16:29:43;4.22;;;2.25;;
19675;SDS011;39539;52.202;9.876;2022-12-07T16:32:08;4.97;;;1.80;;
19675;SDS011;39539;52.202;9.876;2022-12-07T16:34:34;3.15;;;2.00;;
19675;SDS011;39539;52.202;9.876;2022-12-07T16:37:00;5.40;;;2.30;;
19675;SDS011;39539;52.202;9.876;2022-12-07T16:39:25;4.25;;;2.45;;
19675;SDS011;39539;52.202;9.876;2022-12-07T16:41:51;4.20;;;2.30;;
19675;SDS011;39539;52.202;9.876;2022-12-07T16:44:17;3.92;;;2.65;;
19675;SDS011;39539;52.202;9.876;2022-12-07T16:46:43;5.35;;;3.72;;
19675;SDS011;39539;52.202;9.876;2022-12-07T16:49:14;5.72;;;2.80;;
19675;SDS011;39539;52.202;9.876;2022-12-07T16:51:40;5.95;;;2.50;;
19675;SDS011;39539;52.202;9.876;2022-12-07T16:54:11;6.20;;;2.92;;
19675;SDS011;39539;52.202;9.876;2022-12-07T16:56:37;6.32;;;3.58;;
19675;SDS011;39539;52.202;9.876;2022-12-07T16:59:03;6.40;;;2.90;;
19675;SDS011;39539;52.202;9.876;2022-12-07T17:01:28;6.40;;;2.85;;
19675;SDS011;39539;52.202;9.876;2022-12-07T17:03:54;9.05;;;3.15;;
19675;SDS011;39539;52.202;9.876;2022-12-07T17:06:23;3.95;;;2.88;;
19675;SDS011;39539;52.202;9.876;2022-12-07T17:08:50;5.07;;;3.33;;
19675;SDS011;39539;52.202;9.876;2022-12-07T17:11:18;6.80;;;3.10;;
19675;SDS011;39539;52.202;9.876;2022-12-07T17:13:45;6.97;;;3.10;;
19675;SDS011;39539;52.202;9.876;2022-12-07T17:16:29;3.80;;;3.28;;
19675;SDS011;39539;52.202;9.876;2022-12-07T17:18:56;6.65;;;3.28;;
19675;SDS011;39539;52.202;9.876;2022-12-07T17:21:22;4.40;;;3.42;;
19675;SDS011;39539;52.202;9.876;2022-12-07T17:23:48;6.05;;;3.85;;
19675;SDS011;39539;52.202;9.876;2022-12-07T17:26:16;6.60;;;3.67;;